Time;durP1;ratioP1;P1;durP2;ratioP2;P2;SDS_P1;SDS_P2;PMS_P1;PMS_P2;Temp;Humidity;BMP_temperature;BMP_pressure;BME280_temperature;BME280_humidity;BME280_pressure;Samples;Min_cycle;Max_cycle;Signal;HPM_P1;HPM_P2
2021/04/19 00:00:00;;;;;;;19.42;12.82;;;6.90;97.70;;;;;;5091077;28;20508;-65
2021/04/19 00:02:26;;;;;;;21.35;12.57;;;6.90;97.80;;;;;;5078612;28;20481;-60
2021/04/19 00:04:51;;;;;;;18.42;12.25;;;6.80;97.90;;;;;;5067234;28;20048;-63
2021/04/19 00:07:17;;;;;;;18.75;11.93;;;6.80;98.30;;;;;;5065328;28;20123;-61
2021/04/19 00:09:43;;;;;;;18.55;11.88;;;6.70;98.60;;;;;;5082261;28;20029;-61
2021/04/19 00:12:09;;;;;;;17.13;11.52;;;6.70;99.10;;;;;;5090414;28;20124;-58
2021/04/19 00:14:35;;;;;;;19.67;12.15;;;6.60;99.50;;;;;;5091415;28;20452;-62
2021/04/19 00:17:01;;;;;;;19.40;13.05;;;6.60;99.80;;;;;;5083617;28;20063;-64
2021/04/19 00:19:26;;;;;;;23.88;13.27;;;6.60;99.90;;;;;;5078046;28;20020;-61
2021/04/19 00:21:53;;;;;;;26.80;14.90;;;6.50;99.90;;;;;;5080755;28;20138;-62
2021/04/19 00:24:19;;;;;;;23.02;14.45;;;6.50;99.90;;;;;;5061477;28;20035;-61
2021/04/19 00:26:44;;;;;;;25.52;15.32;;;6.50;99.90;;;;;;5090920;28;20420;-61
2021/04/19 00:29:10;;;;;;;22.55;14.90;;;6.50;99.90;;;;;;5090188;28;20036;-60
2021/04/19 00:31:36;;;;;;;23.02;14.48;;;6.50;99.90;;;;;;5086708;28;20033;-64
2021/04/19 00:34:02;;;;;;;24.63;15.02;;;6.50;99.90;;;;;;5091323;28;20027;-65
2021/04/19 00:36:28;;;;;;;22.20;14.65;;;6.50;99.90;;;;;;5086175;28;20016;-62
2021/04/19 00:38:54;;;;;;;25.98;15.57;;;6.40;99.90;;;;;;5085017;28;20036;-63
2021/04/19 00:41:20;;;;;;;25.20;14.95;;;6.50;99.90;;;;;;5091159;28;20045;-59
2021/04/19 00:43:46;;;;;;;25.90;15.07;;;6.40;99.90;;;;;;5086164;28;20037;-63
2021/04/19 00:46:11;;;;;;;20.50;13.32;;;6.40;99.90;;;;;;5090779;28;20434;-59
2021/04/19 00:48:37;;;;;;;22.45;14.20;;;6.50;99.90;;;;;;5070783;28;20024;-60
2021/04/19 00:51:07;;;;;;;19.83;13.48;;;6.40;99.90;;;;;;5093777;28;20430;-65
2021/04/19 00:53:34;;;;;;;21.98;13.75;;;6.40;99.90;;;;;;5086532;28;20024;-62
2021/04/19 00:56:00;;;;;;;22.25;13.90;;;6.40;99.90;;;;;;5083853;28;20032;-64
2021/04/19 00:58:29;;;;;;;21.65;14.52;;;6.30;99.90;;;;;;5069502;28;20040;-62
2021/04/19 01:00:55;;;;;;;22.35;15.15;;;6.30;99.90;;;;;;5094173;28;20035;-58
2021/04/19 01:03:21;;;;;;;24.27;15.25;;;6.30;99.90;;;;;;5061849;28;20037;-61
2021/04/19 01:05:48;;;;;;;24.15;15.82;;;6.30;99.90;;;;;;5074707;28;20034;-61
2021/04/19 01:08:15;;;;;;;22.15;14.15;;;6.20;99.90;;;;;;5083204;28;20089;-61
2021/04/19 01:10:41;;;;;;;27.38;16.17;;;6.10;99.90;;;;;;5093016;28;20031;-63
2021/04/19 01:13:07;;;;;;;22.65;14.90;;;6.10;99.90;;;;;;5087964;28;20111;-62
2021/04/19 01:15:34;;;;;;;23.02;15.20;;;6.10;99.90;;;;;;5076329;28;20028;-61
2021/04/19 01:18:00;;;;;;;20.98;13.75;;;6.10;99.90;;;;;;5093320;28;20118;-65
2021/04/19 01:20:29;;;;;;;18.15;13.23;;;6.10;99.90;;;;;;5093830;28;20095;-62
2021/04/19 01:22:55;;;;;;;26.17;15.05;;;6.10;99.90;;;;;;5084242;28;20472;-61
2021/04/19 01:25:27;;;;;;;26.48;15.73;;;6.10;99.90;;;;;;5083356;28;20039;-61
2021/04/19 01:27:54;;;;;;;22.95;14.88;;;6.00;99.90;;;;;;5092198;28;20032;-60
2021/04/19 01:30:22;;;;;;;20.55;13.25;;;6.00;99.90;;;;;;5092099;28;20114;-62
2021/04/19 01:32:48;;;;;;;25.58;14.95;;;6.00;99.90;;;;;;5085680;28;20085;-61
2021/04/19 01:35:14;;;;;;;22.23;14.65;;;6.00;99.90;;;;;;5092104;28;20028;-64
2021/04/19 01:37:41;;;;;;;22.08;14.52;;;6.00;99.90;;;;;;5075390;28;20531;-63
2021/04/19 01:40:09;;;;;;;23.80;15.57;;;6.00;99.90;;;;;;5092953;28;20020;-59
2021/04/19 01:42:35;;;;;;;22.35;14.25;;;6.00;99.90;;;;;;5081571;28;20054;-64
2021/04/19 01:45:02;;;;;;;19.40;13.30;;;6.00;99.90;;;;;;5084265;28;20032;-65
2021/04/19 01:47:28;;;;;;;26.08;16.17;;;6.00;99.90;;;;;;5070482;28;20043;-63
2021/04/19 01:49:54;;;;;;;22.88;15.75;;;6.00;99.90;;;;;;5078488;28;20111;-62
2021/04/19 01:52:20;;;;;;;26.48;15.52;;;6.00;99.90;;;;;;5092916;28;20655;-62
2021/04/19 01:54:45;;;;;;;22.55;14.48;;;6.00;99.90;;;;;;5093103;28;20031;-61
2021/04/19 01:57:11;;;;;;;22.52;14.82;;;6.00;99.90;;;;;;5064984;28;20120;-62
2021/04/19 01:59:38;;;;;;;22.20;14.70;;;6.10;99.90;;;;;;5086482;28;20028;-63
2021/04/19 02:02:36;;;;;;;23.30;15.13;;;6.10;99.90;;;;;;5074711;28;20043;-63
2021/04/19 02:05:35;;;;;;;23.58;15.35;;;6.10;99.90;;;;;;5080144;28;20070;-64
2021/04/19 02:08:22;;;;;;;26.02;17.00;;;6.10;99.90;;;;;;5079064;28;20028;-65
2021/04/19 02:10:57;;;;;;;26.08;17.10;;;6.10;99.90;;;;;;5082341;28;20026;-62
2021/04/19 02:13:50;;;;;;;25.17;15.85;;;6.10;99.90;;;;;;5086753;28;20491;-60
2021/04/19 02:16:38;;;;;;;26.85;16.83;;;6.10;99.90;;;;;;5063086;28;20024;-64
2021/04/19 02:19:11;;;;;;;25.55;17.20;;;6.10;99.90;;;;;;5072688;28;20067;-64
2021/04/19 02:21:43;;;;;;;26.92;16.60;;;6.10;99.90;;;;;;5078493;28;20025;-63
2021/04/19 02:24:13;;;;;;;27.92;18.33;;;6.10;99.90;;;;;;5075267;28;20034;-61
2021/04/19 02:26:46;;;;;;;29.88;18.70;;;6.10;99.90;;;;;;5072544;28;20021;-62
2021/04/19 02:29:14;;;;;;;28.08;17.50;;;6.10;99.90;;;;;;5078058;28;20040;-63
2021/04/19 02:31:48;;;;;;;27.33;18.55;;;6.10;99.90;;;;;;5087182;28;20437;-62
2021/04/19 02:34:18;;;;;;;29.67;19.08;;;6.10;99.90;;;;;;5092173;28;20384;-56
2021/04/19 02:36:50;;;;;;;27.08;18.48;;;6.20;99.90;;;;;;5083095;28;20029;-63
2021/04/19 02:39:19;;;;;;;24.13;14.68;;;6.20;99.90;;;;;;5061535;28;20032;-61
2021/04/19 02:41:50;;;;;;;23.02;14.68;;;6.20;99.90;;;;;;5081884;28;20029;-60
2021/04/19 02:44:17;;;;;;;23.67;14.23;;;6.20;99.90;;;;;;5075581;28;20028;-62
2021/04/19 02:46:44;;;;;;;23.92;15.70;;;6.20;99.90;;;;;;5082198;28;20064;-63
2021/04/19 02:49:11;;;;;;;23.63;16.13;;;6.20;99.90;;;;;;5056764;28;20032;-61
2021/04/19 02:51:41;;;;;;;22.95;15.95;;;6.10;99.90;;;;;;5077919;28;20031;-64
2021/04/19 02:54:08;;;;;;;20.88;14.73;;;6.10;99.90;;;;;;5075615;28;20016;-63
2021/04/19 02:56:35;;;;;;;22.88;15.00;;;6.10;99.90;;;;;;5076782;28;20443;-63
2021/04/19 02:59:06;;;;;;;20.77;14.55;;;6.10;99.90;;;;;;5083271;28;20060;-66
2021/04/19 03:01:35;;;;;;;24.38;14.88;;;6.10;99.90;;;;;;5082731;28;20032;-61
2021/04/19 03:04:13;;;;;;;24.27;15.90;;;6.10;99.90;;;;;;5091118;28;20020;-63
2021/04/19 03:06:42;;;;;;;23.13;16.10;;;6.10;99.90;;;;;;5084938;28;20104;-60
2021/04/19 03:09:09;;;;;;;21.38;15.00;;;6.10;99.90;;;;;;5058471;28;20021;-62
2021/04/19 03:12:01;;;;;;;21.27;14.25;;;6.10;99.90;;;;;;5060302;28;20627;-63
2021/04/19 03:14:34;;;;;;;24.55;14.38;;;6.10;99.90;;;;;;5060774;28;20082;-63
2021/04/19 03:17:10;;;;;;;22.10;14.63;;;6.10;99.90;;;;;;5059505;28;20021;-65
2021/04/19 03:19:38;;;;;;;26.20;17.10;;;6.10;99.90;;;;;;5063421;28;20086;-64
2021/04/19 03:22:06;;;;;;;24.27;15.57;;;6.20;99.90;;;;;;5061108;28;20074;-63
2021/04/19 03:24:34;;;;;;;28.38;17.70;;;6.20;99.90;;;;;;5061236;28;20053;-64
2021/04/19 03:27:01;;;;;;;22.73;15.07;;;6.20;99.90;;;;;;5061139;28;20025;-65
2021/04/19 03:29:28;;;;;;;19.17;14.52;;;6.20;99.90;;;;;;5061995;28;20032;-63
2021/04/19 03:31:56;;;;;;;23.42;15.82;;;6.20;99.90;;;;;;5061969;28;20032;-65
2021/04/19 03:34:26;;;;;;;22.42;15.40;;;6.30;99.90;;;;;;5060553;28;20048;-63
2021/04/19 03:37:01;;;;;;;25.02;16.70;;;6.30;99.90;;;;;;5061338;28;20398;-61
2021/04/19 03:39:28;;;;;;;23.35;15.60;;;6.30;99.90;;;;;;5059609;28;20040;-62
2021/04/19 03:41:55;;;;;;;25.45;16.55;;;6.30;99.90;;;;;;5063305;28;20035;-63
2021/04/19 03:44:25;;;;;;;31.30;17.48;;;6.30;99.90;;;;;;5061191;28;20079;-61
2021/04/19 03:46:53;;;;;;;24.77;16.15;;;6.30;99.90;;;;;;5063523;28;20017;-64
2021/04/19 03:49:30;;;;;;;22.65;16.40;;;6.30;99.90;;;;;;5061728;28;20650;-65
2021/04/19 03:52:00;;;;;;;25.65;16.80;;;6.30;99.90;;;;;;5066445;28;20413;-62
2021/04/19 03:54:31;;;;;;;25.98;16.58;;;6.40;99.90;;;;;;5061139;28;20526;-64
2021/04/19 03:56:58;;;;;;;23.77;15.35;;;6.40;99.90;;;;;;5061561;28;20036;-59
2021/04/19 03:59:25;;;;;;;30.33;16.90;;;6.40;99.90;;;;;;5061729;28;20033;-62
2021/04/19 04:01:51;;;;;;;26.48;16.67;;;6.40;99.90;;;;;;5063292;28;20053;-61
2021/04/19 04:04:20;;;;;;;24.95;17.08;;;6.40;99.90;;;;;;5066341;28;20032;-60
2021/04/19 04:06:47;;;;;;;23.63;16.45;;;6.40;99.90;;;;;;5080552;28;20021;-61
2021/04/19 04:09:14;;;;;;;26.50;15.68;;;6.40;99.90;;;;;;5091724;28;20031;-64
2021/04/19 04:11:41;;;;;;;24.35;16.30;;;6.30;99.90;;;;;;5083422;28;20146;-62
2021/04/19 04:14:07;;;;;;;21.90;14.82;;;6.30;99.90;;;;;;5078957;28;20410;-62
2021/04/19 04:16:32;;;;;;;23.00;15.63;;;6.20;99.90;;;;;;5088621;28;20107;-60
2021/04/19 04:18:58;;;;;;;25.80;16.13;;;6.20;99.90;;;;;;5076377;28;20388;-62
2021/04/19 04:21:26;;;;;;;27.58;16.52;;;6.20;99.90;;;;;;5089871;28;20042;-61
2021/04/19 04:23:52;;;;;;;26.60;16.30;;;6.20;99.90;;;;;;5082700;28;20466;-58
2021/04/19 04:26:18;;;;;;;25.05;17.25;;;6.20;99.90;;;;;;5094497;28;20039;-61
2021/04/19 04:28:45;;;;;;;25.08;16.30;;;6.20;99.90;;;;;;5095292;28;20473;-65
2021/04/19 04:31:11;;;;;;;24.25;15.90;;;6.20;99.90;;;;;;5092685;28;20093;-62
2021/04/19 04:33:37;;;;;;;22.27;15.50;;;6.20;99.90;;;;;;5091442;28;20020;-61
2021/04/19 04:36:03;;;;;;;22.65;15.13;;;6.20;99.90;;;;;;5061189;28;20016;-65
2021/04/19 04:38:28;;;;;;;22.35;15.35;;;6.20;99.90;;;;;;5082057;28;20032;-62
2021/04/19 04:40:54;;;;;;;27.30;16.30;;;6.20;99.90;;;;;;5094562;28;20028;-62
2021/04/19 04:43:23;;;;;;;24.27;15.80;;;6.20;99.90;;;;;;5073070;28;20028;-64
2021/04/19 04:45:55;;;;;;;24.90;16.08;;;6.10;99.90;;;;;;5092458;28;20114;-62
2021/04/19 04:48:40;;;;;;;25.17;17.00;;;6.20;99.90;;;;;;5069784;28;20100;-64
2021/04/19 04:51:18;;;;;;;24.40;16.23;;;6.20;99.90;;;;;;5093465;28;20423;-64
2021/04/19 04:53:53;;;;;;;26.30;16.38;;;6.20;99.90;;;;;;5077478;28;20105;-61
2021/04/19 04:56:22;;;;;;;28.88;17.55;;;6.20;99.90;;;;;;5074719;28;20052;-62
2021/04/19 04:58:53;;;;;;;29.33;17.33;;;6.30;99.90;;;;;;5073744;28;20063;-62
2021/04/19 05:01:21;;;;;;;25.52;16.38;;;6.30;99.90;;;;;;5089991;28;20058;-60
2021/04/19 05:03:49;;;;;;;20.42;15.52;;;6.30;99.90;;;;;;5094600;28;20483;-60
2021/04/19 05:06:15;;;;;;;24.30;16.17;;;6.30;99.90;;;;;;5092129;28;20028;-58
2021/04/19 05:08:41;;;;;;;26.35;16.63;;;6.30;99.90;;;;;;5071859;28;20028;-65
2021/04/19 05:11:08;;;;;;;27.00;16.38;;;6.30;99.90;;;;;;5093610;28;20456;-57
2021/04/19 05:13:34;;;;;;;31.05;17.65;;;6.30;99.90;;;;;;5071930;28;20056;-58
2021/04/19 05:16:01;;;;;;;32.15;17.33;;;6.30;99.90;;;;;;5093304;28;20839;-65
2021/04/19 05:18:27;;;;;;;24.98;16.67;;;6.30;99.90;;;;;;5081371;28;20024;-64
2021/04/19 05:20:54;;;;;;;26.98;17.77;;;6.10;99.90;;;;;;5093589;28;20027;-70
2021/04/19 05:23:19;;;;;;;24.45;16.80;;;6.10;99.90;;;;;;5085762;28;20059;-59
2021/04/19 05:25:46;;;;;;;30.08;18.58;;;6.00;99.90;;;;;;5065377;28;20076;-62
2021/04/19 05:28:12;;;;;;;26.70;18.92;;;6.00;99.90;;;;;;5091091;28;20370;-65
2021/04/19 05:30:39;;;;;;;28.33;18.80;;;5.90;99.90;;;;;;5090869;28;20350;-61
2021/04/19 05:33:06;;;;;;;26.50;18.45;;;5.90;99.90;;;;;;5076852;28;20044;-61
2021/04/19 05:35:33;;;;;;;25.70;18.08;;;5.90;99.90;;;;;;5093808;28;20609;-62
2021/04/19 05:37:59;;;;;;;27.75;18.63;;;5.90;99.90;;;;;;5070387;28;20061;-61
2021/04/19 05:40:27;;;;;;;28.08;17.35;;;5.80;99.90;;;;;;5082782;28;20474;-61
2021/04/19 05:42:53;;;;;;;31.13;20.05;;;5.80;99.90;;;;;;5065543;28;20481;-62
2021/04/19 05:45:19;;;;;;;38.65;20.88;;;5.80;99.90;;;;;;5060943;28;20037;-62
2021/04/19 05:47:50;;;;;;;29.65;18.77;;;5.80;99.90;;;;;;5063125;28;20037;-64
2021/04/19 05:50:17;;;;;;;31.02;19.45;;;5.90;99.90;;;;;;5092942;28;20028;-65
2021/04/19 05:52:45;;;;;;;28.05;19.05;;;6.00;99.90;;;;;;5093479;28;20031;-61
2021/04/19 05:55:12;;;;;;;30.23;20.27;;;6.00;99.90;;;;;;5089204;28;20028;-65
2021/04/19 05:58:18;;;;;;;34.55;20.80;;;5.90;99.90;;;;;;5089934;28;20052;-64
2021/04/19 06:00:57;;;;;;;32.38;20.42;;;5.90;99.90;;;;;;5093040;28;20074;-68
2021/04/19 06:03:49;;;;;;;33.30;21.73;;;5.70;99.90;;;;;;5083727;28;20034;-64
2021/04/19 06:06:21;;;;;;;35.15;21.92;;;5.70;99.90;;;;;;5062444;28;20035;-60
2021/04/19 06:09:09;;;;;;;38.15;23.70;;;5.60;99.90;;;;;;5082891;28;20016;-62
2021/04/19 06:11:50;;;;;;;37.80;24.65;;;5.50;99.90;;;;;;5073105;28;20071;-64
2021/04/19 06:14:20;;;;;;;36.35;22.92;;;5.50;99.90;;;;;;5063042;28;20050;-62
2021/04/19 06:16:46;;;;;;;37.67;24.05;;;5.50;99.90;;;;;;5079286;28;20033;-63
2021/04/19 06:19:16;;;;;;;32.97;23.30;;;5.40;99.90;;;;;;5078510;28;20039;-64
2021/04/19 06:21:42;;;;;;;41.42;25.60;;;5.40;99.90;;;;;;5070541;28;20025;-64
2021/04/19 06:24:09;;;;;;;42.63;25.25;;;5.30;99.90;;;;;;5057052;28;20102;-61
2021/04/19 06:26:36;;;;;;;36.22;24.75;;;5.30;99.90;;;;;;5058706;28;20082;-63
2021/04/19 06:29:09;;;;;;;42.10;26.13;;;5.30;99.90;;;;;;5072493;28;20032;-65
2021/04/19 06:31:39;;;;;;;42.47;26.73;;;5.30;99.90;;;;;;5069967;28;20032;-64
2021/04/19 06:34:10;;;;;;;44.30;27.15;;;5.30;99.90;;;;;;5063862;28;20851;-62
2021/04/19 06:36:43;;;;;;;45.53;27.77;;;5.30;99.90;;;;;;5062355;28;20393;-57
2021/04/19 06:39:13;;;;;;;45.22;27.73;;;5.40;99.90;;;;;;5056095;28;20450;-62
2021/04/19 06:41:39;;;;;;;46.30;29.20;;;5.40;99.90;;;;;;5070082;28;20033;-60
2021/04/19 06:44:05;;;;;;;39.42;26.58;;;5.40;99.90;;;;;;5067675;28;20404;-64
2021/04/19 06:46:33;;;;;;;46.08;27.98;;;5.50;99.90;;;;;;5066744;28;20032;-61
2021/04/19 06:48:59;;;;;;;42.33;27.25;;;5.50;99.90;;;;;;5072610;28;20025;-62
2021/04/19 06:51:26;;;;;;;42.40;27.00;;;5.50;99.90;;;;;;5069724;28;20024;-63
2021/04/19 06:53:56;;;;;;;43.70;27.58;;;5.50;99.90;;;;;;5062168;28;20544;-61
2021/04/19 06:56:25;;;;;;;40.03;27.33;;;5.50;99.90;;;;;;5062334;28;20723;-61
2021/04/19 06:58:52;;;;;;;39.40;26.30;;;5.50;99.90;;;;;;5064901;28;20052;-62
2021/04/19 07:01:27;;;;;;;41.95;27.67;;;5.60;99.90;;;;;;5052596;28;20489;-62
2021/04/19 07:03:56;;;;;;;40.35;26.90;;;5.60;99.90;;;;;;5070590;28;20036;-62
2021/04/19 07:06:27;;;;;;;44.78;27.35;;;5.60;99.90;;;;;;5062512;28;20016;-63
2021/04/19 07:09:01;;;;;;;41.22;27.42;;;5.70;99.90;;;;;;5058935;28;20029;-62
2021/04/19 07:11:30;;;;;;;42.13;27.77;;;5.60;99.90;;;;;;5062352;28;20021;-62
2021/04/19 07:13:59;;;;;;;45.38;27.63;;;5.70;99.90;;;;;;5060954;28;20025;-62
2021/04/19 07:16:26;;;;;;;45.80;26.05;;;5.70;99.90;;;;;;5057806;28;20202;-63
2021/04/19 07:18:51;;;;;;;37.63;26.10;;;5.70;99.90;;;;;;5054357;28;20025;-63
2021/04/19 07:21:17;;;;;;;43.00;26.77;;;5.70;99.90;;;;;;5051653;28;20025;-62
2021/04/19 07:23:43;;;;;;;36.55;24.63;;;5.70;99.90;;;;;;5050711;28;20874;-63
2021/04/19 07:26:10;;;;;;;41.80;25.67;;;5.70;99.90;;;;;;5049729;28;20040;-64
2021/04/19 07:28:37;;;;;;;37.22;25.02;;;5.70;99.90;;;;;;5052761;28;20025;-63
2021/04/19 07:31:04;;;;;;;37.80;25.67;;;5.70;99.90;;;;;;5062544;28;20090;-65
2021/04/19 07:33:32;;;;;;;41.92;24.95;;;5.70;99.90;;;;;;5058060;28;20521;-63
2021/04/19 07:36:17;;;;;;;32.33;22.88;;;5.70;99.90;;;;;;5067979;28;20028;-63
2021/04/19 07:38:42;;;;;;;42.95;26.00;;;5.70;99.90;;;;;;5071797;28;20033;-62
2021/04/19 07:41:08;;;;;;;37.83;24.90;;;5.70;99.90;;;;;;5062592;28;20021;-63
2021/04/19 07:43:38;;;;;;;36.75;24.77;;;5.80;99.90;;;;;;5061002;28;20051;-62
2021/04/19 07:46:09;;;;;;;41.65;25.10;;;5.80;99.90;;;;;;5062650;28;20025;-65
2021/04/19 07:48:39;;;;;;;41.15;25.60;;;5.80;99.90;;;;;;5069868;28;20489;-62
2021/04/19 07:51:35;;;;;;;52.60;26.95;;;5.90;99.90;;;;;;5051351;28;20037;-63
2021/04/19 07:54:20;;;;;;;42.88;26.15;;;5.90;99.90;;;;;;5057627;28;20032;-63
2021/04/19 07:57:07;;;;;;;34.38;22.73;;;6.10;99.90;;;;;;5057091;28;20036;-63
2021/04/19 07:59:36;;;;;;;39.63;25.65;;;6.10;99.90;;;;;;5063611;28;20098;-62
2021/04/19 08:02:05;;;;;;;37.13;23.85;;;6.20;99.90;;;;;;5058906;28;20029;-63
2021/04/19 08:04:32;;;;;;;37.53;24.15;;;6.30;99.90;;;;;;5067468;28;20064;-56
2021/04/19 08:06:59;;;;;;;40.58;25.77;;;6.30;99.90;;;;;;5051882;28;20047;-61
2021/04/19 08:09:28;;;;;;;36.30;23.83;;;6.40;99.90;;;;;;5065702;28;20631;-64
2021/04/19 08:11:59;;;;;;;37.03;23.13;;;6.50;99.90;;;;;;5063853;28;20035;-63
2021/04/19 08:14:31;;;;;;;36.55;24.48;;;6.70;99.90;;;;;;5050361;28;20616;-63
2021/04/19 08:17:11;;;;;;;37.97;24.20;;;6.80;99.90;;;;;;5053395;28;20025;-63
2021/04/19 08:19:40;;;;;;;31.30;23.33;;;7.00;99.90;;;;;;5063922;28;20066;-58
2021/04/19 08:22:25;;;;;;;33.38;21.83;;;7.00;99.90;;;;;;5069337;28;20084;-66
2021/04/19 08:25:06;;;;;;;32.00;23.05;;;7.20;99.90;;;;;;5067939;28;20132;-61
2021/04/19 08:27:32;;;;;;;36.67;24.23;;;7.30;99.90;;;;;;5054104;28;20025;-63
2021/04/19 08:29:57;;;;;;;35.95;24.65;;;7.40;99.90;;;;;;5052761;28;20028;-63
2021/04/19 08:32:23;;;;;;;33.40;22.33;;;7.50;99.90;;;;;;5056286;28;20033;-63
2021/04/19 08:34:50;;;;;;;33.47;25.05;;;7.50;99.90;;;;;;5058066;28;20086;-63
2021/04/19 08:37:20;;;;;;;34.00;22.52;;;7.50;99.90;;;;;;5066566;28;20037;-63
2021/04/19 08:39:47;;;;;;;;;;;7.50;99.90;;;;;;5068065;28;20029;-62
2021/04/19 08:42:13;;;;;;;33.40;22.02;;;7.50;99.90;;;;;;5050302;28;19909;-63
2021/04/19 08:44:41;;;;;;;33.70;22.50;;;7.50;99.90;;;;;;5049570;28;20029;-62
2021/04/19 08:47:08;;;;;;;36.50;24.10;;;7.40;99.90;;;;;;5050851;28;20033;-65
2021/04/19 08:49:34;;;;;;;36.53;23.70;;;7.30;99.90;;;;;;5050570;28;20377;-63
2021/04/19 08:52:00;;;;;;;35.58;22.52;;;7.30;99.90;;;;;;5057264;28;20044;-62
2021/04/19 08:54:27;;;;;;;35.25;24.20;;;7.30;99.90;;;;;;5069069;28;20159;-63
2021/04/19 08:56:53;;;;;;;37.45;25.08;;;7.30;99.90;;;;;;5070022;28;20071;-61
2021/04/19 08:59:21;;;;;;;36.30;24.55;;;7.30;99.90;;;;;;5072268;28;20043;-63
2021/04/19 09:01:47;;;;;;;45.00;25.17;;;7.20;99.90;;;;;;5056641;28;20032;-61
2021/04/19 09:04:13;;;;;;;38.20;25.48;;;7.20;99.90;;;;;;5059048;28;20036;-61
2021/04/19 09:06:50;;;;;;;39.95;23.58;;;7.20;99.90;;;;;;5070533;28;20382;-62
2021/04/19 09:09:36;;;;;;;40.78;25.02;;;7.10;99.90;;;;;;5054119;28;20036;-63
2021/04/19 09:12:11;;;;;;;42.38;26.92;;;7.00;99.90;;;;;;5055475;28;20029;-63
2021/04/19 09:14:43;;;;;;;35.63;24.45;;;6.90;99.90;;;;;;5054113;28;20025;-63
2021/04/19 09:17:08;;;;;;;47.20;27.95;;;6.90;99.90;;;;;;5053154;28;20025;-63
2021/04/19 09:19:35;;;;;;;42.20;26.58;;;6.90;99.90;;;;;;5064907;28;20490;-62
2021/04/19 09:22:08;;;;;;;40.42;26.15;;;6.90;99.90;;;;;;5053074;28;20418;-61
2021/04/19 09:25:09;;;;;;;39.40;27.05;;;7.00;99.90;;;;;;5065576;28;20063;-63
2021/04/19 09:27:48;;;;;;;36.38;24.35;;;7.00;99.90;;;;;;5071347;28;20055;-61
2021/04/19 09:30:30;;;;;;;34.72;23.67;;;7.00;99.90;;;;;;5071421;28;20416;-63
2021/04/19 09:33:05;;;;;;;41.60;26.63;;;7.00;99.90;;;;;;5073130;28;20032;-63
2021/04/19 09:35:43;;;;;;;35.92;23.02;;;7.00;99.90;;;;;;5065784;28;20050;-64
2021/04/19 09:38:10;;;;;;;36.15;23.73;;;7.10;99.90;;;;;;5070284;28;20016;-63
2021/04/19 09:40:57;;;;;;;34.72;24.00;;;7.10;99.90;;;;;;5069521;28;20029;-57
2021/04/19 09:43:41;;;;;;;34.10;23.80;;;7.10;99.90;;;;;;5057850;28;20540;-63
2021/04/19 09:46:07;;;;;;;34.78;23.98;;;7.10;99.90;;;;;;5061498;28;20033;-65
2021/04/19 09:48:36;;;;;;;35.47;24.27;;;7.20;99.90;;;;;;5056204;28;20485;-61
2021/04/19 09:51:13;;;;;;;35.90;22.73;;;7.20;99.90;;;;;;5061825;28;20517;-63
2021/04/19 09:53:40;;;;;;;35.40;22.65;;;7.40;99.90;;;;;;5062566;28;20470;-63
2021/04/19 09:56:06;;;;;;;34.50;21.80;;;7.50;99.90;;;;;;5071377;28;20470;-65
2021/04/19 09:58:35;;;;;;;42.38;23.77;;;7.60;99.90;;;;;;5056776;28;20045;-63
2021/04/19 10:01:01;;;;;;;36.58;22.95;;;7.70;99.90;;;;;;5069905;28;20054;-63
2021/04/19 10:03:27;;;;;;;34.40;21.88;;;7.70;99.90;;;;;;5064782;28;20028;-63
2021/04/19 10:05:59;;;;;;;34.42;21.90;;;7.80;99.90;;;;;;5069587;28;20036;-63
2021/04/19 10:08:26;;;;;;;36.97;22.75;;;7.90;99.90;;;;;;5060761;28;20033;-62
2021/04/19 10:10:54;;;;;;;35.70;22.05;;;7.90;99.90;;;;;;5055764;28;20021;-63
2021/04/19 10:13:36;;;;;;;34.75;21.95;;;8.00;99.90;;;;;;5061588;28;20024;-63
2021/04/19 10:16:02;;;;;;;37.75;23.13;;;8.00;99.90;;;;;;5054158;28;20025;-63
2021/04/19 10:18:33;;;;;;;36.85;22.08;;;8.00;99.90;;;;;;5053576;28;20143;-64
2021/04/19 10:20:58;;;;;;;34.28;22.88;;;8.10;99.90;;;;;;5059584;28;20032;-66
2021/04/19 10:23:40;;;;;;;38.08;22.67;;;8.10;99.90;;;;;;5076255;28;20036;-64
2021/04/19 10:26:06;;;;;;;34.60;21.77;;;8.20;99.90;;;;;;5061012;28;20051;-66
2021/04/19 10:28:42;;;;;;;36.70;23.63;;;8.20;99.90;;;;;;5060269;28;20067;-64
2021/04/19 10:31:16;;;;;;;34.63;22.30;;;8.20;99.90;;;;;;5065677;28;20025;-65
2021/04/19 10:33:44;;;;;;;36.38;24.02;;;8.30;99.90;;;;;;5056403;28;20090;-63
2021/04/19 10:36:25;;;;;;;34.28;20.98;;;8.40;99.90;;;;;;5053854;28;20024;-64
2021/04/19 10:38:53;;;;;;;33.55;22.67;;;8.50;99.90;;;;;;5059366;28;20386;-64
2021/04/19 10:41:32;;;;;;;31.42;22.65;;;8.60;99.90;;;;;;5051950;28;20108;-64
2021/04/19 10:43:59;;;;;;;36.80;23.13;;;8.60;99.90;;;;;;5060173;28;20032;-63
2021/04/19 10:46:30;;;;;;;34.53;23.00;;;8.70;99.90;;;;;;5064110;28;20168;-61
2021/04/19 10:48:57;;;;;;;34.58;23.25;;;8.70;99.90;;;;;;5056384;28;20532;-60
2021/04/19 10:51:27;;;;;;;38.13;22.85;;;8.70;99.90;;;;;;5054523;28;20454;-60
2021/04/19 10:54:00;;;;;;;33.60;23.27;;;8.70;99.90;;;;;;5066654;28;20382;-63
2021/04/19 10:56:28;;;;;;;34.40;23.42;;;8.70;99.90;;;;;;5053004;28;20114;-62
2021/04/19 10:59:00;;;;;;;35.08;22.30;;;8.70;99.90;;;;;;5067487;28;20049;-63
2021/04/19 11:01:43;;;;;;;34.58;22.67;;;8.70;99.90;;;;;;5054398;28;20173;-60
2021/04/19 11:04:10;;;;;;;40.28;23.90;;;8.70;99.90;;;;;;5071407;28;20025;-66
2021/04/19 11:06:37;;;;;;;36.60;24.05;;;8.80;99.90;;;;;;5063528;28;20066;-63
2021/04/19 11:09:27;;;;;;;33.35;24.05;;;8.80;99.90;;;;;;5071415;28;20020;-63
2021/04/19 11:11:53;;;;;;;37.05;23.73;;;8.80;99.90;;;;;;5056711;28;20060;-64
2021/04/19 11:14:33;;;;;;;35.00;23.13;;;8.80;99.90;;;;;;5065343;28;20386;-64
2021/04/19 11:17:09;;;;;;;36.78;23.60;;;8.80;99.90;;;;;;5052042;28;20082;-63
2021/04/19 11:19:45;;;;;;;32.88;22.88;;;8.90;99.90;;;;;;5051472;28;20040;-64
2021/04/19 11:22:37;;;;;;;32.72;22.52;;;8.90;99.90;;;;;;5060499;28;20123;-66
2021/04/19 11:25:19;;;;;;;32.10;22.35;;;9.00;99.90;;;;;;5067965;28;20039;-63
2021/04/19 11:27:48;;;;;;;33.30;22.35;;;9.10;99.90;;;;;;5071292;28;20029;-64
2021/04/19 11:30:24;;;;;;;31.63;21.90;;;9.20;99.90;;;;;;5061785;28;20032;-62
2021/04/19 11:33:13;;;;;;;33.13;21.58;;;9.20;99.90;;;;;;5058455;28;20497;-63
2021/04/19 11:35:45;;;;;;;29.70;20.37;;;9.30;99.90;;;;;;5051355;28;20060;-63
2021/04/19 11:38:20;;;;;;;33.15;20.83;;;9.50;99.90;;;;;;5057092;28;20051;-65
2021/04/19 11:40:47;;;;;;;28.88;20.83;;;9.50;99.90;;;;;;5057089;28;20032;-63
2021/04/19 11:43:27;;;;;;;29.45;20.67;;;9.50;99.90;;;;;;5058831;28;20041;-63
2021/04/19 11:46:00;;;;;;;29.58;20.48;;;9.60;99.90;;;;;;5060246;28;20047;-62
2021/04/19 11:48:26;;;;;;;27.40;19.58;;;9.60;99.90;;;;;;5052270;28;20123;-61
2021/04/19 11:50:53;;;;;;;30.20;20.30;;;9.60;99.90;;;;;;5062485;28;20526;-62
2021/04/19 11:53:23;;;;;;;29.42;20.17;;;9.70;99.90;;;;;;5070552;28;20033;-63
2021/04/19 11:55:51;;;;;;;28.02;20.98;;;9.70;99.90;;;;;;5058951;28;20037;-63
2021/04/19 11:58:17;;;;;;;27.02;20.83;;;9.70;99.90;;;;;;5048743;28;20511;-63
2021/04/19 12:00:42;;;;;;;29.13;19.70;;;9.70;99.60;;;;;;5069151;28;20052;-63
2021/04/19 12:03:08;;;;;;;33.00;21.13;;;9.70;99.90;;;;;;5065068;28;20040;-63
2021/04/19 12:05:34;;;;;;;30.00;19.42;;;9.70;99.90;;;;;;5060642;28;20094;-63
2021/04/19 12:08:00;;;;;;;25.58;19.20;;;9.80;99.90;;;;;;5055891;28;20036;-63
2021/04/19 12:10:26;;;;;;;25.85;18.33;;;9.90;98.80;;;;;;5051260;28;20079;-61
2021/04/19 12:12:51;;;;;;;27.13;18.88;;;9.90;97.90;;;;;;5051123;28;20029;-61
2021/04/19 12:15:17;;;;;;;24.67;17.77;;;9.90;97.50;;;;;;5050426;28;20029;-63
2021/04/19 12:17:43;;;;;;;25.48;17.52;;;10.00;97.20;;;;;;5049863;28;20416;-63
2021/04/19 12:20:09;;;;;;;21.50;16.23;;;10.00;97.20;;;;;;5056930;28;20533;-63
2021/04/19 12:22:35;;;;;;;21.63;16.25;;;10.00;96.10;;;;;;5067142;28;20457;-64
2021/04/19 12:25:00;;;;;;;19.20;15.32;;;10.00;96.00;;;;;;5067062;28;20063;-62
2021/04/19 12:27:26;;;;;;;23.17;15.57;;;10.00;96.60;;;;;;5052343;28;20065;-61
2021/04/19 12:29:52;;;;;;;20.48;14.65;;;10.10;94.50;;;;;;5067340;28;20040;-60
2021/04/19 12:32:17;;;;;;;18.92;14.40;;;10.10;93.80;;;;;;5065414;28;20029;-64
2021/04/19 12:34:43;;;;;;;17.90;13.82;;;10.20;94.50;;;;;;5073049;28;20025;-61
2021/04/19 12:37:09;;;;;;;20.55;14.27;;;10.40;91.70;;;;;;5074310;28;20085;-62
2021/04/19 12:39:35;;;;;;;18.10;12.63;;;10.50;93.40;;;;;;5072801;28;20048;-63
2021/04/19 12:42:00;;;;;;;16.52;13.25;;;10.50;90.50;;;;;;5067157;28;20534;-63
2021/04/19 12:44:26;;;;;;;19.60;13.77;;;10.50;91.30;;;;;;5073531;28;20024;-63
2021/04/19 12:46:52;;;;;;;20.35;14.10;;;10.50;91.30;;;;;;5067481;28;20025;-62
2021/04/19 12:49:21;;;;;;;16.30;12.43;;;10.70;91.30;;;;;;5058681;28;20381;-65